Time;durP1;ratioP1;P1;durP2;ratioP2;P2;SDS_P1;SDS_P2;PMS_P1;PMS_P2;Temp;Humidity;BMP_temperature;BMP_pressure;BME280_temperature;BME280_humidity;BME280_pressure;Samples;Min_cycle;Max_cycle;Signal;HPM_P1;HPM_P2
2022/06/05 00:02:27;;;;;;;4.07;3.23;;;;;19.40;101303.00;;;;4999920;28;20226;-70
2022/06/05 00:05:20;;;;;;;3.63;2.93;;;;;19.50;101301.00;;;;5001211;28;20226;-70
2022/06/05 00:08:18;;;;;;;5.57;3.03;;;;;19.30;101304.00;;;;5004663;28;20595;-71
2022/06/05 00:11:04;;;;;;;3.77;3.33;;;;;19.40;101296.00;;;;5000982;28;20226;-70
2022/06/05 00:13:55;;;;;;;4.43;3.17;;;;;19.30;101306.00;;;;5000248;28;20218;-70
2022/06/05 00:16:42;;;;;;;3.37;3.03;;;;;19.10;101301.00;;;;4999775;28;20227;-71
2022/06/05 00:19:31;;;;;;;3.90;3.40;;;;;19.10;101304.00;;;;4976999;28;20297;-69
2022/06/05 00:22:18;;;;;;;6.13;3.50;;;;;19.10;101307.00;;;;5002049;28;20277;-70
2022/06/05 00:25:05;;;;;;;4.57;3.20;;;;;19.10;101307.00;;;;4997828;28;20238;-71
2022/06/05 00:27:57;;;;;;;3.83;3.43;;;;;19.00;101307.00;;;;5001398;28;20690;-70
2022/06/05 00:30:54;;;;;;;3.87;3.07;;;;;19.00;101313.00;;;;4997494;28;20238;-70
2022/06/05 00:33:42;;;;;;;3.20;2.83;;;;;18.90;101309.00;;;;4997876;28;20230;-71
2022/06/05 00:36:56;;;;;;;3.83;2.90;;;;;18.80;101307.00;;;;4998291;28;20231;-69
2022/06/05 00:39:49;;;;;;;4.10;3.43;;;;;18.80;101301.00;;;;4999989;28;20221;-71
2022/06/05 00:42:36;;;;;;;6.80;3.37;;;;;18.90;101304.00;;;;5034467;28;20241;-72
2022/06/05 00:45:22;;;;;;;4.83;3.13;;;;;18.90;101306.00;;;;5034780;28;20222;-71
2022/06/05 00:48:12;;;;;;;4.90;3.50;;;;;18.90;101300.00;;;;5039368;28;20225;-72
2022/06/05 00:50:58;;;;;;;5.90;3.20;;;;;18.70;101292.00;;;;5037669;28;20237;-71
2022/06/05 00:53:45;;;;;;;3.43;2.90;;;;;18.70;101290.00;;;;5039044;28;20241;-71
2022/06/05 00:56:32;;;;;;;4.43;3.33;;;;;18.70;101268.00;;;;5040378;28;20241;-70
2022/06/05 00:59:20;;;;;;;3.40;2.90;;;;;18.60;101253.00;;;;5035828;28;20214;-71
2022/06/05 01:02:08;;;;;;;4.03;2.93;;;;;18.60;101229.00;;;;5038282;28;20242;-72
2022/06/05 01:04:56;;;;;;;6.27;3.00;;;;;18.50;101233.00;;;;5035512;28;20249;-70
2022/06/05 01:07:43;;;;;;;4.40;3.20;;;;;18.50;101237.00;;;;5029458;28;20325;-74
2022/06/05 01:10:41;;;;;;;4.27;3.10;;;;;18.60;101238.00;;;;5008939;28;20310;-70
2022/06/05 01:13:37;;;;;;;4.47;3.00;;;;;18.40;101235.00;;;;5008095;28;20302;-71
2022/06/05 01:16:29;;;;;;;3.70;2.80;;;;;18.30;101233.00;;;;5010434;28;20226;-69
2022/06/05 01:19:29;;;;;;;6.63;3.00;;;;;18.30;101240.00;;;;5007854;28;20222;-70
2022/06/05 01:22:44;;;;;;;5.37;3.47;;;;;18.30;101249.00;;;;5004290;28;20830;-69
2022/06/05 01:25:44;;;;;;;4.87;3.27;;;;;18.20;101259.00;;;;5007871;28;20254;-71
2022/06/05 01:28:33;;;;;;;5.23;3.17;;;;;18.20;101238.00;;;;5010022;28;20238;-72
2022/06/05 01:31:24;;;;;;;3.80;2.97;;;;;18.30;101238.00;;;;5005593;28;20233;-71
2022/06/05 01:34:21;;;;;;;4.63;3.30;;;;;18.20;101228.00;;;;5004267;28;20300;-72
2022/06/05 01:37:13;;;;;;;5.53;2.90;;;;;18.10;101232.00;;;;5003758;28;20230;-71
2022/06/05 01:40:05;;;;;;;3.43;3.00;;;;;18.10;101238.00;;;;5004826;28;20827;-70
2022/06/05 01:42:57;;;;;;;5.43;3.10;;;;;18.10;101230.00;;;;5005898;28;20225;-70
2022/06/05 01:45:48;;;;;;;4.63;3.23;;;;;17.90;101225.00;;;;5004792;28;20586;-70
2022/06/05 01:48:39;;;;;;;5.53;3.20;;;;;17.90;101233.00;;;;5009804;28;20230;-71
2022/06/05 01:51:30;;;;;;;5.00;3.03;;;;;17.90;101230.00;;;;5007100;28;20714;-71
2022/06/05 01:54:23;;;;;;;6.97;3.60;;;;;17.80;101238.00;;;;5002107;28;20250;-70
2022/06/05 01:57:12;;;;;;;4.47;2.93;;;;;17.90;101227.00;;;;4999885;28;20254;-70
2022/06/05 02:00:09;;;;;;;4.53;3.30;;;;;17.80;101222.00;;;;5007941;28;20246;-71
2022/06/05 02:03:18;;;;;;;5.10;2.90;;;;;17.70;101217.00;;;;5002484;28;20277;-70
2022/06/05 02:06:09;;;;;;;4.17;3.40;;;;;17.80;101206.00;;;;5005691;28;20241;-71
2022/06/05 02:09:00;;;;;;;5.37;2.97;;;;;17.70;101192.00;;;;5002232;28;20253;-71
2022/06/05 02:11:47;;;;;;;4.07;2.73;;;;;17.70;101186.00;;;;4992766;28;20913;-71
2022/06/05 02:14:33;;;;;;;4.33;3.20;;;;;17.70;101182.00;;;;5005730;28;20308;-71
2022/06/05 02:17:21;;;;;;;5.13;3.07;;;;;17.70;101176.00;;;;5007657;28;20234;-69
2022/06/05 02:20:10;;;;;;;6.13;3.30;;;;;17.70;101181.00;;;;5002798;28;20285;-71
2022/06/05 02:22:57;;;;;;;6.23;3.03;;;;;17.80;101171.00;;;;5004306;28;20281;-68
2022/06/05 02:25:43;;;;;;;5.00;3.13;;;;;17.70;101178.00;;;;5004430;28;20245;-68
2022/06/05 02:28:29;;;;;;;4.93;3.20;;;;;17.60;101176.00;;;;5005167;28;20238;-71
2022/06/05 02:31:30;;;;;;;7.00;3.43;;;;;17.60;101175.00;;;;5005072;28;20733;-71
2022/06/05 02:34:34;;;;;;;4.67;3.37;;;;;17.50;101169.00;;;;5002859;28;20230;-72
2022/06/05 02:37:32;;;;;;;5.17;3.37;;;;;17.40;101159.00;;;;5002603;28;20925;-71
2022/06/05 02:40:27;;;;;;;4.20;3.17;;;;;17.30;101158.00;;;;5002413;28;20268;-71
2022/06/05 02:43:20;;;;;;;3.53;2.97;;;;;17.30;101143.00;;;;4998348;28;20695;-70
2022/06/05 02:46:12;;;;;;;3.87;2.90;;;;;17.40;101147.00;;;;5002439;28;20234;-71
2022/06/05 02:49:08;;;;;;;4.50;3.13;;;;;17.40;101128.00;;;;4972570;28;20715;-70
2022/06/05 02:51:59;;;;;;;4.37;3.37;;;;;17.30;101128.00;;;;5003677;28;20234;-71
2022/06/05 02:54:50;;;;;;;4.90;3.27;;;;;17.30;101116.00;;;;5005481;28;20237;-71
2022/06/05 02:57:37;;;;;;;4.87;3.43;;;;;17.20;101109.00;;;;5004747;28;20238;-70
2022/06/05 03:00:26;;;;;;;4.77;3.27;;;;;17.20;101106.00;;;;5004188;28;20250;-70
2022/06/05 03:03:29;;;;;;;6.60;3.33;;;;;17.20;101096.00;;;;5001905;28;20285;-71
2022/06/05 03:06:15;;;;;;;4.77;3.27;;;;;17.20;101089.00;;;;5001626;28;20237;-71
2022/06/05 03:09:04;;;;;;;3.80;3.10;;;;;17.20;101076.00;;;;5001073;28;20226;-71
2022/06/05 03:11:58;;;;;;;6.17;3.53;;;;;17.00;101077.00;;;;5000409;28;20625;-70
2022/06/05 03:14:44;;;;;;;5.33;3.67;;;;;17.00;101072.00;;;;5005250;28;20233;-71
2022/06/05 03:17:31;;;;;;;5.53;3.67;;;;;17.00;101068.00;;;;5004316;28;20237;-70
2022/06/05 03:20:18;;;;;;;4.53;3.37;;;;;17.10;101073.00;;;;5005520;28;20715;-72
2022/06/05 03:23:09;;;;;;;6.83;3.90;;;;;17.00;101069.00;;;;5000084;28;20314;-71
2022/06/05 03:25:57;;;;;;;5.27;3.63;;;;;17.00;101069.00;;;;5003533;28;20239;-71
2022/06/05 03:28:43;;;;;;;7.20;3.80;;;;;16.90;101056.00;;;;5005251;28;20238;-71
2022/06/05 03:31:30;;;;;;;4.87;3.77;;;;;17.00;101064.00;;;;5006228;28;20261;-71
2022/06/05 03:34:17;;;;;;;5.00;3.57;;;;;17.00;101053.00;;;;5005046;28;20233;-72
2022/06/05 03:37:04;;;;;;;6.57;3.57;;;;;17.00;101059.00;;;;4999866;28;20264;-68
2022/06/05 03:39:51;;;;;;;5.20;3.83;;;;;17.00;101050.00;;;;4998544;28;20752;-72
2022/06/05 03:42:39;;;;;;;5.40;3.83;;;;;17.00;101040.00;;;;5003356;28;20614;-71
2022/06/05 03:45:25;;;;;;;5.30;3.77;;;;;16.90;101036.00;;;;5001442;28;20292;-71
2022/06/05 03:48:12;;;;;;;5.63;3.73;;;;;16.90;101036.00;;;;5002491;28;20733;-70
2022/06/05 03:50:59;;;;;;;5.77;4.37;;;;;17.00;101044.00;;;;5005681;28;20233;-71
2022/06/05 03:53:46;;;;;;;4.97;3.87;;;;;16.90;101043.00;;;;5002152;28;20237;-71
2022/06/05 03:56:33;;;;;;;4.23;3.43;;;;;16.90;101046.00;;;;5002371;28;20229;-72
2022/06/05 03:59:21;;;;;;;5.47;4.00;;;;;16.90;101057.00;;;;5001383;28;20369;-69
2022/06/05 04:02:07;;;;;;;4.63;3.40;;;;;16.90;101053.00;;;;5004526;28;20368;-68
2022/06/05 04:04:53;;;;;;;5.67;3.90;;;;;16.90;101049.00;;;;4999683;28;20742;-70
2022/06/05 04:07:39;;;;;;;5.57;4.07;;;;;16.90;101052.00;;;;5000757;28;20234;-71
2022/06/05 04:10:26;;;;;;;5.00;3.93;;;;;17.00;101044.00;;;;5003236;28;20236;-71
2022/06/05 04:13:12;;;;;;;9.47;4.40;;;;;17.10;101046.00;;;;5000577;28;20233;-71
2022/06/05 04:16:00;;;;;;;5.00;3.87;;;;;17.00;101042.00;;;;5003535;28;20234;-68
2022/06/05 04:18:48;;;;;;;7.77;4.13;;;;;17.10;101032.00;;;;5004486;28;20237;-71
2022/06/05 04:21:37;;;;;;;5.60;3.83;;;;;17.20;101031.00;;;;5001174;28;20761;-70
2022/06/05 04:24:23;;;;;;;5.57;4.20;;;;;17.10;101021.00;;;;5003445;28;20726;-71
2022/06/05 04:27:10;;;;;;;5.27;4.23;;;;;17.20;101021.00;;;;4998543;28;20305;-69
2022/06/05 04:29:58;;;;;;;6.00;4.33;;;;;17.30;101026.00;;;;5002446;28;20323;-70
2022/06/05 04:32:46;;;;;;;5.63;4.43;;;;;17.30;101026.00;;;;5003020;28;20238;-71
2022/06/05 04:35:32;;;;;;;7.63;4.60;;;;;17.30;101034.00;;;;5003609;28;20249;-70
2022/06/05 04:38:19;;;;;;;9.47;4.33;;;;;17.30;101034.00;;;;5002893;28;20374;-71
2022/06/05 04:41:05;;;;;;;9.37;4.80;;;;;17.30;101040.00;;;;4999314;28;20245;-71
2022/06/05 04:43:53;;;;;;;5.43;4.37;;;;;17.50;101044.00;;;;5003181;28;20353;-70
2022/06/05 04:46:39;;;;;;;6.47;4.47;;;;;17.50;101043.00;;;;5001875;28;20604;-71
2022/06/05 04:49:27;;;;;;;9.17;4.63;;;;;17.50;101049.00;;;;5003554;28;20309;-70
2022/06/05 04:52:13;;;;;;;7.63;4.83;;;;;17.60;101053.00;;;;5004226;28;20360;-71
2022/06/05 04:55:00;;;;;;;5.87;4.27;;;;;17.60;101052.00;;;;5000395;28;20958;-70
2022/06/05 04:57:46;;;;;;;6.63;4.70;;;;;17.70;101045.00;;;;5003301;28;20242;-70
2022/06/05 05:00:32;;;;;;;6.17;4.43;;;;;17.70;101036.00;;;;4998742;28;20241;-71
2022/06/05 05:03:18;;;;;;;6.53;4.57;;;;;17.80;101031.00;;;;5002949;28;20225;-70
2022/06/05 05:06:06;;;;;;;6.90;5.20;;;;;17.80;101038.00;;;;4995712;28;20300;-69
2022/06/05 05:08:53;;;;;;;6.67;4.57;;;;;17.90;101042.00;;;;5002967;28;20596;-70
2022/06/05 05:11:40;;;;;;;5.13;4.27;;;;;17.80;101033.00;;;;5004758;28;20250;-72
2022/06/05 05:14:26;;;;;;;6.50;4.90;;;;;17.90;101038.00;;;;5000830;28;20325;-71
2022/06/05 05:17:12;;;;;;;5.37;4.27;;;;;18.00;101038.00;;;;4998349;28;20233;-69
2022/06/05 05:19:59;;;;;;;6.50;4.70;;;;;18.00;101045.00;;;;4997003;28;20230;-70
2022/06/05 05:22:47;;;;;;;6.67;4.87;;;;;18.00;101042.00;;;;5001083;28;20234;-72
2022/06/05 05:25:33;;;;;;;6.50;4.73;;;;;18.10;101046.00;;;;5004019;28;20715;-70
2022/06/05 05:28:19;;;;;;;6.40;4.77;;;;;18.10;101051.00;;;;5004057;28;20241;-70
2022/06/05 05:31:08;;;;;;;6.73;5.27;;;;;18.10;101056.00;;;;5001785;28;20234;-70
2022/06/05 05:33:56;;;;;;;6.57;4.60;;;;;18.20;101050.00;;;;5007216;28;20246;-71
2022/06/05 05:36:43;;;;;;;6.57;4.83;;;;;18.40;101051.00;;;;5005566;28;20241;-72
2022/06/05 05:42:36;;;;;;;7.27;5.03;;;;;18.30;101050.00;;;;5006767;28;20233;-69
2022/06/05 05:45:22;;;;;;;6.07;4.80;;;;;18.40;101054.00;;;;5003668;28;20234;-71
2022/06/05 05:48:09;;;;;;;6.37;5.10;;;;;18.40;101051.00;;;;5002653;28;20751;-71
2022/06/05 05:50:55;;;;;;;8.63;5.23;;;;;18.40;101049.00;;;;5006754;28;20601;-71
2022/06/05 05:53:42;;;;;;;8.03;5.57;;;;;18.50;101060.00;;;;5005550;28;20234;-71
2022/06/05 05:56:31;;;;;;;7.50;5.63;;;;;18.40;101057.00;;;;5005052;28;20353;-72
2022/06/05 05:59:17;;;;;;;7.17;5.30;;;;;18.60;101061.00;;;;5003663;28;20226;-71
2022/06/05 06:02:06;;;;;;;8.80;4.97;;;;;18.60;101067.00;;;;4999323;28;20300;-71
2022/06/05 06:04:53;;;;;;;6.47;5.23;;;;;18.70;101061.00;;;;4987599;28;20296;-71
2022/06/05 06:07:39;;;;;;;6.40;5.20;;;;;18.60;101048.00;;;;4996168;28;20773;-71
2022/06/05 06:10:26;;;;;;;7.10;5.37;;;;;18.60;101055.00;;;;5001058;28;20301;-71
2022/06/05 06:13:13;;;;;;;7.00;5.60;;;;;18.60;101050.00;;;;4998226;28;20773;-71
2022/06/05 06:16:00;;;;;;;7.40;5.40;;;;;18.70;101050.00;;;;5006629;28;20221;-71
2022/06/05 06:18:46;;;;;;;8.67;5.50;;;;;18.70;101050.00;;;;4994468;28;20321;-69
2022/06/05 06:21:33;;;;;;;9.90;5.60;;;;;18.80;101046.00;;;;4991764;28;20298;-71
2022/06/05 06:24:25;;;;;;;7.97;5.33;;;;;18.90;101039.00;;;;4994361;28;20875;-71
2022/06/05 06:27:12;;;;;;;9.10;5.43;;;;;18.90;101040.00;;;;4993458;28;20227;-70
2022/06/05 06:30:00;;;;;;;7.23;5.73;;;;;19.10;101029.00;;;;5006667;28;20576;-70
2022/06/05 06:32:46;;;;;;;6.87;5.30;;;;;19.20;101021.00;;;;4998277;28;20229;-69
2022/06/05 06:35:35;;;;;;;7.50;5.60;;;;;19.20;101022.00;;;;5003520;28;20289;-70
2022/06/05 06:38:21;;;;;;;6.17;5.00;;;;;19.40;101013.00;;;;4998168;28;20238;-71
2022/06/05 06:41:10;;;;;;;9.87;5.50;;;;;19.40;101021.00;;;;4993845;28;20226;-70
2022/06/05 06:43:57;;;;;;;8.10;5.50;;;;;19.50;101023.00;;;;4996594;28;20234;-70
2022/06/05 06:46:45;;;;;;;8.10;5.47;;;;;19.50;101017.00;;;;5003214;28;20755;-71
2022/06/05 06:49:33;;;;;;;6.10;4.60;;;;;19.70;101010.00;;;;5000224;28;20242;-72
2022/06/05 06:52:20;;;;;;;6.97;5.43;;;;;19.80;100999.00;;;;5000643;28;20226;-70
2022/06/05 06:55:08;;;;;;;7.10;5.53;;;;;19.80;100995.00;;;;5004106;28;20305;-70
2022/06/05 06:57:54;;;;;;;6.57;5.00;;;;;19.90;100989.00;;;;5001093;28;20266;-73
2022/06/05 07:00:40;;;;;;;7.27;4.97;;;;;19.90;100989.00;;;;5002158;28;20822;-71
2022/06/05 07:03:29;;;;;;;6.27;5.13;;;;;19.90;100983.00;;;;5006408;28;20230;-71
2022/06/05 07:06:16;;;;;;;6.43;5.30;;;;;20.10;100968.00;;;;4997340;28;20239;-72
2022/06/05 07:09:02;;;;;;;8.00;5.30;;;;;20.10;100959.00;;;;4999480;28;20242;-71
2022/06/05 07:11:48;;;;;;;7.87;5.10;;;;;20.10;100965.00;;;;4999545;28;20234;-71
2022/06/05 07:14:35;;;;;;;6.93;5.20;;;;;20.30;100951.00;;;;4997562;28;20223;-71
2022/06/05 07:17:21;;;;;;;6.57;5.43;;;;;20.20;100953.00;;;;4998790;28;20756;-71
2022/06/05 07:20:10;;;;;;;10.07;5.03;;;;;20.10;100953.00;;;;4995675;28;20231;-72
2022/06/05 07:22:57;;;;;;;6.90;5.40;;;;;20.20;100949.00;;;;4995421;28;20286;-71
2022/06/05 07:25:48;;;;;;;6.77;5.47;;;;;20.30;100946.00;;;;5005539;28;20249;-70
2022/06/05 07:28:34;;;;;;;7.73;5.87;;;;;20.30;100933.00;;;;5001289;28;20239;-71
2022/06/05 07:31:20;;;;;;;5.83;4.93;;;;;20.40;100932.00;;;;4998165;28;20324;-72
2022/06/05 07:34:08;;;;;;;6.20;4.90;;;;;20.40;100929.00;;;;4996335;28;20724;-72
2022/06/05 07:36:56;;;;;;;5.93;5.33;;;;;20.50;100922.00;;;;5004589;28;20229;-72
2022/06/05 07:39:43;;;;;;;7.93;5.80;;;;;20.70;100914.00;;;;5005381;28;20245;-72
2022/06/05 07:42:29;;;;;;;6.10;5.13;;;;;20.80;100918.00;;;;5003251;28;20229;-71
2022/06/05 07:45:17;;;;;;;6.10;5.50;;;;;21.00;100907.00;;;;4998018;28;20294;-72
2022/06/05 07:48:03;;;;;;;5.87;4.90;;;;;21.00;100902.00;;;;4995103;28;20362;-71
2022/06/05 07:57:13;;;;;;;8.20;5.67;;;;;21.00;100904.00;;;;4995113;28;20230;-73
2022/06/05 07:59:59;;;;;;;6.43;4.90;;;;;20.90;100892.00;;;;5004615;28;20245;-74
2022/06/05 08:02:45;;;;;;;7.97;5.20;;;;;21.10;100891.00;;;;5002801;28;20230;-72
2022/06/05 08:05:32;;;;;;;6.80;5.53;;;;;21.20;100887.00;;;;4996616;28;20289;-72
2022/06/05 08:08:18;;;;;;;7.80;5.50;;;;;21.20;100889.00;;;;4994116;28;20722;-72
2022/06/05 08:11:07;;;;;;;6.77;5.87;;;;;21.20;100879.00;;;;4998606;28;20281;-72
2022/06/05 08:13:57;;;;;;;6.47;5.27;;;;;21.20;100870.00;;;;5001504;28;20251;-71
2022/06/05 08:16:44;;;;;;;6.90;5.60;;;;;21.30;100882.00;;;;4997420;28;20599;-71
2022/06/05 08:19:31;;;;;;;6.87;5.30;;;;;21.40;100892.00;;;;4996125;28;20223;-72
2022/06/05 08:22:19;;;;;;;6.63;5.10;;;;;21.40;100880.00;;;;4995406;28;20229;-70
2022/06/05 08:25:07;;;;;;;9.27;5.97;;;;;21.70;100879.00;;;;4990893;28;20231;-71
2022/06/05 08:27:54;;;;;;;6.93;5.83;;;;;21.80;100875.00;;;;4992641;28;20587;-73
2022/06/05 08:30:41;;;;;;;6.87;5.80;;;;;22.00;100872.00;;;;4997432;28;20297;-73
2022/06/05 08:33:27;;;;;;;7.37;6.00;;;;;22.10;100881.00;;;;5000364;28;20694;-72
2022/06/05 08:36:16;;;;;;;8.10;6.23;;;;;22.40;100862.00;;;;5004536;28;20724;-70
2022/06/05 08:42:29;;;;;;;7.50;5.70;;;;;22.80;100862.00;;;;4991242;28;20240;-72
2022/06/05 08:45:29;;;;;;;6.10;5.50;;;;;23.00;100863.00;;;;4996657;28;20294;-71
2022/06/05 08:48:23;;;;;;;7.50;6.50;;;;;23.20;100868.00;;;;5001729;28;20236;-71
2022/06/05 08:51:34;;;;;;;10.80;6.27;;;;;23.50;100861.00;;;;4997016;28;20289;-74
2022/06/05 08:54:23;;;;;;;9.60;6.40;;;;;24.00;100855.00;;;;4995322;28;20320;-71
2022/06/05 08:57:15;;;;;;;9.57;5.80;;;;;24.20;100852.00;;;;4996845;28;20230;-72
2022/06/05 09:00:06;;;;;;;6.27;5.63;;;;;24.60;100855.00;;;;5001707;28;20233;-70
2022/06/05 09:03:01;;;;;;;7.43;6.10;;;;;24.60;100856.00;;;;5002798;28;20249;-71
2022/06/05 09:05:52;;;;;;;8.27;6.00;;;;;25.00;100856.00;;;;4999456;28;20369;-70
2022/06/05 09:08:45;;;;;;;9.47;6.00;;;;;25.40;100853.00;;;;5002670;28;20238;-71
2022/06/05 09:11:37;;;;;;;6.93;5.43;;;;;25.70;100844.00;;;;5000783;28;20234;-73
2022/06/05 09:14:32;;;;;;;8.70;6.43;;;;;25.70;100839.00;;;;5001145;28;20354;-71
2022/06/05 09:17:21;;;;;;;8.27;6.70;;;;;25.20;100844.00;;;;4993343;28;20318;-71
2022/06/05 09:20:14;;;;;;;7.23;6.03;;;;;25.20;100827.00;;;;4999496;28;20297;-70
2022/06/05 09:23:06;;;;;;;6.97;6.07;;;;;25.30;100832.00;;;;4995834;28;20281;-71
2022/06/05 09:26:02;;;;;;;6.80;5.87;;;;;25.20;100837.00;;;;5001199;28;20601;-72
2022/06/05 09:29:07;;;;;;;7.40;6.20;;;;;25.20;100837.00;;;;4995652;28;20229;-71
2022/06/05 09:32:24;;;;;;;6.20;5.60;;;;;25.00;100830.00;;;;4993740;28;20241;-71
2022/06/05 09:35:21;;;;;;;12.10;6.70;;;;;25.00;100837.00;;;;4996649;28;20237;-74
2022/06/05 09:38:15;;;;;;;7.07;5.73;;;;;24.70;100835.00;;;;4994262;28;20232;-70
2022/06/05 09:41:17;;;;;;;8.33;6.40;;;;;24.70;100834.00;;;;4994473;28;20239;-71
2022/06/05 09:44:22;;;;;;;8.03;6.13;;;;;24.40;100830.00;;;;4996958;28;20234;-74
2022/06/05 09:47:15;;;;;;;10.23;6.20;;;;;24.30;100838.00;;;;5002585;28;20727;-70
2022/06/05 09:50:05;;;;;;;7.17;6.03;;;;;24.10;100836.00;;;;5002505;28;20249;-72
2022/06/05 09:52:53;;;;;;;7.07;6.30;;;;;24.10;100839.00;;;;5000219;28;20238;-71
2022/06/05 09:56:00;;;;;;;7.30;6.10;;;;;23.80;100835.00;;;;5000494;28;20715;-72
2022/06/05 09:58:56;;;;;;;8.10;6.10;;;;;23.60;100826.00;;;;5004914;28;20238;-72
2022/06/05 10:01:50;;;;;;;8.27;6.97;;;;;23.80;100827.00;;;;4992778;28;20241;-71
2022/06/05 10:04:38;;;;;;;8.13;6.17;;;;;23.70;100826.00;;;;5004650;28;20234;-72
2022/06/05 10:07:49;;;;;;;6.77;6.07;;;;;23.80;100830.00;;;;4989729;28;20357;-72
2022/06/05 10:10:39;;;;;;;7.97;6.80;;;;;23.70;100831.00;;;;4993644;28;20246;-71
2022/06/05 10:13:42;;;;;;;8.43;6.07;;;;;23.60;100819.00;;;;5001451;28;20325;-72
2022/06/05 10:16:36;;;;;;;10.23;6.60;;;;;23.40;100825.00;;;;4977886;28;20246;-72
2022/06/05 10:19:34;;;;;;;8.00;6.83;;;;;23.50;100820.00;;;;4998426;28;20238;-72
2022/06/05 10:22:29;;;;;;;8.07;6.47;;;;;23.50;100821.00;;;;5001984;28;20731;-70
2022/06/05 10:25:28;;;;;;;7.43;6.60;;;;;23.30;100811.00;;;;5007822;28;20274;-72
2022/06/05 10:28:19;;;;;;;8.53;6.47;;;;;23.30;100810.00;;;;4992619;28;20230;-71
2022/06/05 10:31:07;;;;;;;7.30;6.50;;;;;23.50;100808.00;;;;5005629;28;20231;-71
2022/06/05 10:34:03;;;;;;;9.03;6.63;;;;;23.50;100807.00;;;;4998451;28;20230;-71
2022/06/05 10:36:59;;;;;;;7.70;6.20;;;;;23.60;100814.00;;;;4999878;28;20503;-69
2022/06/05 10:39:58;;;;;;;8.83;7.00;;;;;23.70;100801.00;;;;5000800;28;20230;-69
2022/06/05 10:42:52;;;;;;;9.33;6.77;;;;;23.70;100802.00;;;;4999354;28;20226;-69
2022/06/05 10:45:50;;;;;;;6.80;6.10;;;;;23.80;100799.00;;;;4992264;28;20616;-71
2022/06/05 10:48:48;;;;;;;8.83;6.57;;;;;23.80;100801.00;;;;4992452;28;20239;-70
2022/06/05 10:51:42;;;;;;;7.77;6.60;;;;;23.90;100793.00;;;;5001985;28;20711;-70
2022/06/05 10:54:35;;;;;;;8.17;6.60;;;;;24.00;100786.00;;;;4995371;28;20218;-70
2022/06/05 10:57:27;;;;;;;10.37;7.30;;;;;24.30;100786.00;;;;4996659;28;20226;-70
2022/06/05 11:00:19;;;;;;;7.50;6.77;;;;;24.20;100786.00;;;;5006472;28;20617;-70
2022/06/05 11:03:15;;;;;;;8.43;6.50;;;;;24.00;100784.00;;;;5006525;28;20706;-70
2022/06/05 11:06:27;;;;;;;7.70;6.90;;;;;24.00;100781.00;;;;5003303;28;20254;-71
2022/06/05 11:09:28;;;;;;;9.20;6.77;;;;;23.90;100777.00;;;;5004813;28;20634;-70
2022/06/05 11:15:35;;;;;;;9.23;7.70;;;;;24.10;100776.00;;;;5000973;28;20230;-71
2022/06/05 11:18:35;;;;;;;8.30;6.77;;;;;24.40;100785.00;;;;5000024;28;20711;-71
2022/06/05 11:21:24;;;;;;;7.40;6.60;;;;;24.50;100775.00;;;;4998201;28;20227;-73
2022/06/05 11:24:22;;;;;;;9.13;6.33;;;;;24.30;100759.00;;;;5004199;28;20225;-70
2022/06/05 11:27:13;;;;;;;7.83;6.50;;;;;24.20;100768.00;;;;4997265;28;20286;-72
2022/06/05 11:30:07;;;;;;;7.10;5.80;;;;;24.30;100769.00;;;;5003356;28;20288;-70
2022/06/05 11:32:58;;;;;;;6.90;5.70;;;;;24.40;100778.00;;;;5005005;28;20357;-73
2022/06/05 11:36:02;;;;;;;5.83;5.10;;;;;24.50;100765.00;;;;4994827;28;20369;-71
2022/06/05 11:39:02;;;;;;;6.70;5.27;;;;;24.60;100760.00;;;;5005205;28;20249;-72
2022/06/05 11:41:54;;;;;;;5.60;4.80;;;;;24.50;100771.00;;;;4999916;28;20971;-70
2022/06/05 11:44:46;;;;;;;5.33;4.83;;;;;24.30;100773.00;;;;4994287;28;20238;-69
2022/06/05 11:47:44;;;;;;;5.67;4.37;;;;;24.30;100780.00;;;;4999373;28;20226;-73
2022/06/05 11:50:35;;;;;;;5.17;4.00;;;;;24.10;100770.00;;;;5004029;28;20297;-71
2022/06/05 11:53:31;;;;;;;6.20;4.60;;;;;23.90;100773.00;;;;4996836;28;20715;-67
2022/06/05 11:56:31;;;;;;;4.77;4.30;;;;;23.80;100761.00;;;;5003947;28;20297;-71
2022/06/05 11:59:28;;;;;;;4.90;4.40;;;;;23.50;100755.00;;;;5005928;28;20217;-70
2022/06/05 12:02:38;;;;;;;4.70;4.20;;;;;23.20;100760.00;;;;5005123;28;20301;-69
2022/06/05 12:05:31;;;;;;;5.83;4.60;;;;;23.00;100749.00;;;;5004794;28;20229;-70
2022/06/05 12:08:22;;;;;;;5.47;4.27;;;;;22.90;100744.00;;;;5003793;28;20296;-65
2022/06/05 12:11:12;;;;;;;4.90;4.40;;;;;22.80;100749.00;;;;5003308;28;20249;-70
2022/06/05 12:14:13;;;;;;;6.03;4.60;;;;;22.80;100738.00;;;;5004675;28;20316;-70
2022/06/05 12:17:12;;;;;;;5.60;4.60;;;;;22.70;100731.00;;;;5004554;28;20300;-70
2022/06/05 12:20:04;;;;;;;6.70;5.63;;;;;22.50;100711.00;;;;5002459;28;20310;-69
2022/06/05 12:22:56;;;;;;;5.80;5.20;;;;;22.40;100721.00;;;;5000410;28;20265;-70
2022/06/05 12:25:52;;;;;;;6.50;5.17;;;;;22.30;100718.00;;;;4999186;28;20779;-70
2022/06/05 12:28:42;;;;;;;5.43;4.93;;;;;22.10;100712.00;;;;4996711;28;20276;-71
2022/06/05 12:31:35;;;;;;;6.23;5.47;;;;;22.00;100701.00;;;;5005073;28;20319;-71
2022/06/05 12:34:26;;;;;;;7.67;6.00;;;;;21.90;100690.00;;;;5004286;28;20227;-70
2022/06/05 12:37:19;;;;;;;6.63;5.93;;;;;21.90;100688.00;;;;4996796;28;20721;-71
2022/06/05 12:40:16;;;;;;;6.30;5.37;;;;;21.70;100701.00;;;;4997787;28;20228;-70
2022/06/05 12:43:08;;;;;;;9.20;5.33;;;;;21.70;100699.00;;;;4993182;28;20238;-71
2022/06/05 12:46:05;;;;;;;5.67;4.67;;;;;21.60;100712.00;;;;4989444;28;20358;-71
2022/06/05 12:49:23;;;;;;;6.23;4.97;;;;;21.80;100703.00;;;;4997950;28;20236;-70
2022/06/05 12:52:26;;;;;;;5.73;4.53;;;;;21.80;100687.00;;;;5001161;28;20457;-69
2022/06/05 12:55:19;;;;;;;6.07;4.20;;;;;21.90;100693.00;;;;5001048;28;20290;-71
2022/06/05 12:58:16;;;;;;;5.20;4.47;;;;;22.00;100693.00;;;;4999199;28;20408;-71
2022/06/05 13:01:08;;;;;;;5.20;4.40;;;;;22.10;100686.00;;;;4998876;28;20395;-70
2022/06/05 13:03:59;;;;;;;5.27;4.50;;;;;22.10;100692.00;;;;4995021;28;20629;-69
2022/06/05 13:06:54;;;;;;;4.77;4.27;;;;;22.20;100683.00;;;;4993307;28;20238;-72
2022/06/05 13:09:44;;;;;;;6.00;4.40;;;;;22.50;100681.00;;;;4993641;28;20994;-70
2022/06/05 13:12:36;;;;;;;5.77;4.73;;;;;22.40;100672.00;;;;4992369;28;20231;-71
2022/06/05 13:15:27;;;;;;;5.60;4.60;;;;;22.50;100663.00;;;;4995122;28;20234;-70
2022/06/05 13:18:24;;;;;;;5.53;5.00;;;;;23.00;100655.00;;;;4995666;28;20275;-72
2022/06/05 13:21:18;;;;;;;7.57;5.77;;;;;23.80;100647.00;;;;5001735;28;20843;-70
2022/06/05 13:24:16;;;;;;;5.90;5.30;;;;;24.30;100648.00;;;;5000713;28;20240;-71
2022/06/05 13:27:17;;;;;;;7.10;5.83;;;;;24.40;100643.00;;;;5004069;28;20901;-71
2022/06/05 13:30:12;;;;;;;6.67;5.53;;;;;24.70;100639.00;;;;4996561;28;20381;-69
2022/06/05 13:33:04;;;;;;;7.33;6.53;;;;;24.60;100635.00;;;;4995222;28;20230;-71
2022/06/05 13:35:58;;;;;;;7.37;6.37;;;;;24.70;100628.00;;;;4999181;28;20238;-70
2022/06/05 13:38:54;;;;;;;8.03;6.17;;;;;25.10;100628.00;;;;4999637;28;20302;-73
2022/06/05 13:41:47;;;;;;;8.47;6.03;;;;;25.30;100625.00;;;;4995754;28;20242;-69
2022/06/05 13:44:35;;;;;;;7.47;5.50;;;;;25.70;100615.00;;;;4999445;28;20253;-70
2022/06/05 13:47:35;;;;;;;8.70;6.40;;;;;25.80;100607.00;;;;5002857;28;20278;-70
2022/06/05 13:50:49;;;;;;;5.97;5.20;;;;;25.60;100596.00;;;;5005019;28;20715;-71
2022/06/05 13:53:39;;;;;;;6.80;6.10;;;;;25.50;100603.00;;;;4998123;28;20233;-71
2022/06/05 13:56:34;;;;;;;7.77;5.87;;;;;25.40;100599.00;;;;5002250;28;20256;-71
2022/06/05 13:59:25;;;;;;;6.53;5.57;;;;;25.00;100595.00;;;;4997563;28;20227;-70
2022/06/05 14:02:27;;;;;;;6.90;5.50;;;;;24.70;100591.00;;;;4991522;28;20230;-69
2022/06/05 14:05:20;;;;;;;7.10;6.13;;;;;24.70;100593.00;;;;4990092;28;20286;-70
2022/06/05 14:08:10;;;;;;;7.17;6.47;;;;;24.80;100590.00;;;;4996518;28;20363;-72
2022/06/05 14:11:06;;;;;;;7.43;6.50;;;;;24.80;100586.00;;;;5003499;28;20580;-70
2022/06/05 14:13:54;;;;;;;7.13;6.30;;;;;24.50;100581.00;;;;5001459;28;20338;-68
2022/06/05 14:16:49;;;;;;;7.80;7.00;;;;;24.50;100589.00;;;;5000011;28;20234;-70
2022/06/05 14:19:38;;;;;;;8.00;6.57;;;;;24.50;100577.00;;;;5002392;28;20737;-69
2022/06/05 14:22:27;;;;;;;8.63;7.00;;;;;24.20;100574.00;;;;5005218;28;20222;-71
2022/06/05 14:25:20;;;;;;;10.03;7.47;;;;;24.10;100592.00;;;;5006883;28;20769;-71